Coy City, Texas
Current Conditions -  °F | °C
As of 11:55 PM on Tuesday 21 Oct 2014 (Local Time) from KPEZ Reporting Station
Clear Clear  
Wind Chill: 69°   Ceiling: Unl
Heat Index: 69°   Visibility: 10mi
Dew Point: 52°   Wind: 0mph
Humidity: 55%   Direction: NA
Pressure: 30.04"   Gusts: NA
Location:  28.8496°N, 97.9656°W
Report Text: KPEZ 220455Z AUTO 00000KT 10SM CLR 21/11 A3004 RMK AO2 T02060113
Loading
Personal Weather Stations






























Interactive Weather Map
Tropical Storm Tracking
New forecast layout! Learn more

10-Day Weather Forecast

Advertisements
Track Severe Weather on mobile